sensor_id;sensor_type;location;lat;lon;timestamp;temperature;humidity
16491;DHT22;8356;51.214;3.270;2023-06-22T00:01:29;538.30;2406.40
16491;DHT22;8356;51.214;3.270;2023-06-22T00:03:54;538.00;2406.40
16491;DHT22;8356;51.214;3.270;2023-06-22T00:06:20;537.60;2406.40
16491;DHT22;8356;51.214;3.270;2023-06-22T00:08:46;512.80;2380.80
16491;DHT22;8356;51.214;3.270;2023-06-22T00:11:12;512.50;2380.80
16491;DHT22;8356;51.214;3.270;2023-06-22T00:13:38;512.60;2380.80
16491;DHT22;8356;51.214;3.270;2023-06-22T00:16:04;537.70;2406.40
16491;DHT22;8356;51.214;3.270;2023-06-22T00:18:30;538.30;2406.40
16491;DHT22;8356;51.214;3.270;2023-06-22T00:20:56;538.30;2406.40
16491;DHT22;8356;51.214;3.270;2023-06-22T00:23:24;537.90;2406.40
16491;DHT22;8356;51.214;3.270;2023-06-22T00:25:50;537.60;2406.40
16491;DHT22;8356;51.214;3.270;2023-06-22T00:28:16;512.80;2380.80
16491;DHT22;8356;51.214;3.270;2023-06-22T00:30:42;512.60;2380.80
16491;DHT22;8356;51.214;3.270;2023-06-22T00:33:08;512.40;2380.80
16491;DHT22;8356;51.214;3.270;2023-06-22T00:35:34;512.30;2380.80
16491;DHT22;8356;51.214;3.270;2023-06-22T00:38:00;512.20;2380.80
16491;DHT22;8356;51.214;3.270;2023-06-22T00:40:29;512.10;2380.80
16491;DHT22;8356;51.214;3.270;2023-06-22T00:42:56;512.00;2380.80
16491;DHT22;8356;51.214;3.270;2023-06-22T00:45:22;512.00;2380.80
16491;DHT22;8356;51.214;3.270;2023-06-22T00:47:50;512.60;2380.80
16491;DHT22;8356;51.214;3.270;2023-06-22T00:50:20;512.90;2380.80
16491;DHT22;8356;51.214;3.270;2023-06-22T00:52:57;537.80;2406.40
16491;DHT22;8356;51.214;3.270;2023-06-22T00:55:24;537.90;2406.40
16491;DHT22;8356;51.214;3.270;2023-06-22T00:57:51;538.40;2406.40
16491;DHT22;8356;51.214;3.270;2023-06-22T01:00:22;512.70;2380.80
16491;DHT22;8356;51.214;3.270;2023-06-22T01:02:50;512.50;2380.80
16491;DHT22;8356;51.214;3.270;2023-06-22T01:05:18;512.20;2380.80
16491;DHT22;8356;51.214;3.270;2023-06-22T01:12:53;512.60;2380.80
16491;DHT22;8356;51.214;3.270;2023-06-22T01:15:36;512.80;2380.80
16491;DHT22;8356;51.214;3.270;2023-06-22T01:18:04;512.60;2380.80
16491;DHT22;8356;51.214;3.270;2023-06-22T01:20:32;537.70;2406.40
16491;DHT22;8356;51.214;3.270;2023-06-22T01:25:48;512.40;2380.80
16491;DHT22;8356;51.214;3.270;2023-06-22T01:31:08;512.10;2380.80
16491;DHT22;8356;51.214;3.270;2023-06-22T01:33:36;512.30;2380.80
16491;DHT22;8356;51.214;3.270;2023-06-22T01:36:03;512.40;2380.80
16491;DHT22;8356;51.214;3.270;2023-06-22T01:38:30;512.30;2380.80
16491;DHT22;8356;51.214;3.270;2023-06-22T01:40:57;512.50;2380.80
16491;DHT22;8356;51.214;3.270;2023-06-22T01:43:26;487.30;2380.80
16491;DHT22;8356;51.214;3.270;2023-06-22T01:45:52;537.70;2406.40
16491;DHT22;8356;51.214;3.270;2023-06-22T01:48:19;537.70;2406.40
16491;DHT22;8356;51.214;3.270;2023-06-22T01:50:45;537.80;2406.40
16491;DHT22;8356;51.214;3.270;2023-06-22T01:53:12;537.70;2406.40
16491;DHT22;8356;51.214;3.270;2023-06-22T01:55:37;537.80;2406.40
16491;DHT22;8356;51.214;3.270;2023-06-22T01:58:03;512.80;2380.80
16491;DHT22;8356;51.214;3.270;2023-06-22T02:00:33;512.50;2380.80
16491;DHT22;8356;51.214;3.270;2023-06-22T02:03:21;512.60;2380.80
16491;DHT22;8356;51.214;3.270;2023-06-22T02:05:50;537.70;2406.40
16491;DHT22;8356;51.214;3.270;2023-06-22T02:08:24;537.70;2406.40
16491;DHT22;8356;51.214;3.270;2023-06-22T02:10:52;537.80;2406.40
16491;DHT22;8356;51.214;3.270;2023-06-22T02:13:18;537.80;2406.40
16491;DHT22;8356;51.214;3.270;2023-06-22T02:15:45;537.80;2406.40
16491;DHT22;8356;51.214;3.270;2023-06-22T02:18:12;512.50;2380.80
16491;DHT22;8356;51.214;3.270;2023-06-22T02:20:38;512.10;2380.80
16491;DHT22;8356;51.214;3.270;2023-06-22T02:23:05;512.00;2380.80
16491;DHT22;8356;51.214;3.270;2023-06-22T02:25:31;512.20;2380.80
16491;DHT22;8356;51.214;3.270;2023-06-22T02:27:57;512.30;2380.80
16491;DHT22;8356;51.214;3.270;2023-06-22T02:30:23;512.10;2380.80
16491;DHT22;8356;51.214;3.270;2023-06-22T02:32:48;512.00;2380.80
16491;DHT22;8356;51.214;3.270;2023-06-22T02:35:14;512.00;2380.80
16491;DHT22;8356;51.214;3.270;2023-06-22T02:37:40;487.10;2380.80
16491;DHT22;8356;51.214;3.270;2023-06-22T02:40:09;487.00;2380.80
16491;DHT22;8356;51.214;3.270;2023-06-22T02:42:39;461.70;2380.80
16491;DHT22;8356;51.214;3.270;2023-06-22T02:45:05;486.80;2380.80
16491;DHT22;8356;51.214;3.270;2023-06-22T02:47:31;486.80;2380.80
16491;DHT22;8356;51.214;3.270;2023-06-22T02:49:57;486.80;2380.80
16491;DHT22;8356;51.214;3.270;2023-06-22T02:52:22;487.00;2380.80
16491;DHT22;8356;51.214;3.270;2023-06-22T02:54:48;487.30;2380.80
16491;DHT22;8356;51.214;3.270;2023-06-22T02:57:13;487.30;2380.80
16491;DHT22;8356;51.214;3.270;2023-06-22T02:59:40;512.10;2380.80
16491;DHT22;8356;51.214;3.270;2023-06-22T03:02:07;512.20;2380.80
16491;DHT22;8356;51.214;3.270;2023-06-22T03:04:34;512.40;2380.80
16491;DHT22;8356;51.214;3.270;2023-06-22T03:07:00;512.30;2380.80
16491;DHT22;8356;51.214;3.270;2023-06-22T03:09:27;512.40;2380.80
16491;DHT22;8356;51.214;3.270;2023-06-22T03:11:54;487.30;2380.80
16491;DHT22;8356;51.214;3.270;2023-06-22T03:14:19;487.00;2380.80
16491;DHT22;8356;51.214;3.270;2023-06-22T03:16:45;486.70;2380.80
16491;DHT22;8356;51.214;3.270;2023-06-22T03:19:10;486.50;2380.80
16491;DHT22;8356;51.214;3.270;2023-06-22T03:21:37;486.60;2380.80
16491;DHT22;8356;51.214;3.270;2023-06-22T03:24:04;487.10;2380.80
16491;DHT22;8356;51.214;3.270;2023-06-22T03:26:30;512.00;2380.80
16491;DHT22;8356;51.214;3.270;2023-06-22T03:28:56;487.30;2380.80
16491;DHT22;8356;51.214;3.270;2023-06-22T03:31:21;486.90;2380.80
16491;DHT22;8356;51.214;3.270;2023-06-22T03:33:48;486.80;2380.80
16491;DHT22;8356;51.214;3.270;2023-06-22T03:36:18;486.80;2380.80
16491;DHT22;8356;51.214;3.270;2023-06-22T03:38:47;486.70;2380.80
16491;DHT22;8356;51.214;3.270;2023-06-22T03:41:13;486.60;2380.80
16491;DHT22;8356;51.214;3.270;2023-06-22T03:43:39;486.40;2380.80
16491;DHT22;8356;51.214;3.270;2023-06-22T03:46:05;486.60;2380.80
16491;DHT22;8356;51.214;3.270;2023-06-22T03:48:31;486.70;2380.80
16491;DHT22;8356;51.214;3.270;2023-06-22T03:50:58;486.70;2380.80
16491;DHT22;8356;51.214;3.270;2023-06-22T03:53:24;487.00;2380.80
16491;DHT22;8356;51.214;3.270;2023-06-22T03:55:51;487.20;2380.80
16491;DHT22;8356;51.214;3.270;2023-06-22T03:58:17;487.10;2380.80
16491;DHT22;8356;51.214;3.270;2023-06-22T04:00:45;487.10;2380.80
16491;DHT22;8356;51.214;3.270;2023-06-22T04:03:11;487.30;2380.80
16491;DHT22;8356;51.214;3.270;2023-06-22T04:05:38;512.00;2380.80
16491;DHT22;8356;51.214;3.270;2023-06-22T04:08:05;512.20;2380.80
16491;DHT22;8356;51.214;3.270;2023-06-22T04:10:30;512.30;2380.80
16491;DHT22;8356;51.214;3.270;2023-06-22T04:12:56;512.30;2380.80
16491;DHT22;8356;51.214;3.270;2023-06-22T04:15:22;512.40;2380.80
16491;DHT22;8356;51.214;3.270;2023-06-22T04:17:47;512.50;2380.80
16491;DHT22;8356;51.214;3.270;2023-06-22T04:20:13;512.40;2380.80
16491;DHT22;8356;51.214;3.270;2023-06-22T04:22:39;512.50;2380.80
16491;DHT22;8356;51.214;3.270;2023-06-22T04:25:05;512.40;2380.80
16491;DHT22;8356;51.214;3.270;2023-06-22T04:27:33;512.10;2380.80
16491;DHT22;8356;51.214;3.270;2023-06-22T04:30:03;512.10;2380.80
16491;DHT22;8356;51.214;3.270;2023-06-22T04:32:29;512.30;2380.80
16491;DHT22;8356;51.214;3.270;2023-06-22T04:34:54;512.10;2380.80
16491;DHT22;8356;51.214;3.270;2023-06-22T04:37:20;512.20;2380.80
16491;DHT22;8356;51.214;3.270;2023-06-22T04:39:49;512.20;2380.80
16491;DHT22;8356;51.214;3.270;2023-06-22T04:42:14;487.30;2380.80
16491;DHT22;8356;51.214;3.270;2023-06-22T04:44:40;487.30;2380.80
16491;DHT22;8356;51.214;3.270;2023-06-22T04:47:07;487.30;2380.80
16491;DHT22;8356;51.214;3.270;2023-06-22T04:49:35;512.10;2380.80
16491;DHT22;8356;51.214;3.270;2023-06-22T04:52:07;512.40;2380.80
16491;DHT22;8356;51.214;3.270;2023-06-22T04:54:33;512.60;2380.80
16491;DHT22;8356;51.214;3.270;2023-06-22T04:57:03;512.60;2380.80
16491;DHT22;8356;51.214;3.270;2023-06-22T04:59:30;512.50;2380.80
16491;DHT22;8356;51.214;3.270;2023-06-22T05:01:56;512.60;2380.80
16491;DHT22;8356;51.214;3.270;2023-06-22T05:04:25;512.70;2380.80
16491;DHT22;8356;51.214;3.270;2023-06-22T05:06:51;512.90;2380.80
16491;DHT22;8356;51.214;3.270;2023-06-22T05:09:18;512.90;2380.80
16491;DHT22;8356;51.214;3.270;2023-06-22T05:11:44;537.60;2406.40
16491;DHT22;8356;51.214;3.270;2023-06-22T05:14:10;512.80;2380.80
16491;DHT22;8356;51.214;3.270;2023-06-22T05:16:36;512.90;2380.80
16491;DHT22;8356;51.214;3.270;2023-06-22T05:19:02;537.60;2406.40
16491;DHT22;8356;51.214;3.270;2023-06-22T05:21:30;537.70;2406.40
16491;DHT22;8356;51.214;3.270;2023-06-22T05:23:56;537.80;2406.40
16491;DHT22;8356;51.214;3.270;2023-06-22T05:26:27;538.00;2406.40
16491;DHT22;8356;51.214;3.270;2023-06-22T05:28:53;538.30;2406.40
16491;DHT22;8356;51.214;3.270;2023-06-22T05:31:19;538.30;2406.40
16491;DHT22;8356;51.214;3.270;2023-06-22T05:33:46;538.40;2406.40
16491;DHT22;8356;51.214;3.270;2023-06-22T05:36:13;538.30;2406.40
16491;DHT22;8356;51.214;3.270;2023-06-22T05:38:39;538.30;2406.40
16491;DHT22;8356;51.214;3.270;2023-06-22T05:41:05;538.30;2406.40
16491;DHT22;8356;51.214;3.270;2023-06-22T05:43:31;538.30;2406.40
16491;DHT22;8356;51.214;3.270;2023-06-22T05:45:57;538.40;2406.40
16491;DHT22;8356;51.214;3.270;2023-06-22T05:48:23;538.40;2406.40
16491;DHT22;8356;51.214;3.270;2023-06-22T05:50:49;563.20;2432.00
16491;DHT22;8356;51.214;3.270;2023-06-22T05:53:15;563.40;2432.00
16491;DHT22;8356;51.214;3.270;2023-06-22T05:55:40;563.40;2432.00
16491;DHT22;8356;51.214;3.270;2023-06-22T05:58:06;563.30;2432.00
16491;DHT22;8356;51.214;3.270;2023-06-22T06:00:32;563.30;2432.00
16491;DHT22;8356;51.214;3.270;2023-06-22T06:02:58;563.30;2432.00
16491;DHT22;8356;51.214;3.270;2023-06-22T06:05:32;563.30;2432.00
16491;DHT22;8356;51.214;3.270;2023-06-22T06:08:00;563.30;2432.00
16491;DHT22;8356;51.214;3.270;2023-06-22T06:10:26;563.40;2432.00
16491;DHT22;8356;51.214;3.270;2023-06-22T06:12:52;563.40;2432.00
16491;DHT22;8356;51.214;3.270;2023-06-22T06:15:18;563.40;2432.00
16491;DHT22;8356;51.214;3.270;2023-06-22T06:17:48;563.40;2432.00
16491;DHT22;8356;51.214;3.270;2023-06-22T06:20:13;563.40;2432.00
16491;DHT22;8356;51.214;3.270;2023-06-22T06:22:39;563.40;2432.00
16491;DHT22;8356;51.214;3.270;2023-06-22T06:25:05;563.50;2432.00
16491;DHT22;8356;51.214;3.270;2023-06-22T06:27:31;563.60;2432.00
16491;DHT22;8356;51.214;3.270;2023-06-22T06:29:57;563.60;2432.00
16491;DHT22;8356;51.214;3.270;2023-06-22T06:32:22;563.60;2432.00
16491;DHT22;8356;51.214;3.270;2023-06-22T06:34:48;563.70;2432.00
16491;DHT22;8356;51.214;3.270;2023-06-22T06:37:14;563.80;2432.00
16491;DHT22;8356;51.214;3.270;2023-06-22T06:39:39;563.80;2432.00
16491;DHT22;8356;51.214;3.270;2023-06-22T06:42:05;563.90;2432.00
16491;DHT22;8356;51.214;3.270;2023-06-22T06:44:31;563.90;2432.00
16491;DHT22;8356;51.214;3.270;2023-06-22T06:46:56;564.00;2432.00
16491;DHT22;8356;51.214;3.270;2023-06-22T06:49:22;564.10;2432.00
16491;DHT22;8356;51.214;3.270;2023-06-22T06:51:47;564.10;2432.00
16491;DHT22;8356;51.214;3.270;2023-06-22T06:54:13;564.10;2432.00
16491;DHT22;8356;51.214;3.270;2023-06-22T06:56:39;564.10;2432.00
16491;DHT22;8356;51.214;3.270;2023-06-22T06:59:04;588.80;2432.00
16491;DHT22;8356;51.214;3.270;2023-06-22T07:01:30;589.00;2432.00
16491;DHT22;8356;51.214;3.270;2023-06-22T07:03:59;589.00;2432.00
16491;DHT22;8356;51.214;3.270;2023-06-22T07:06:26;589.00;2432.00
16491;DHT22;8356;51.214;3.270;2023-06-22T07:08:55;589.00;2432.00
16491;DHT22;8356;51.214;3.270;2023-06-22T07:11:21;589.00;2432.00
16491;DHT22;8356;51.214;3.270;2023-06-22T07:13:46;589.10;2432.00
16491;DHT22;8356;51.214;3.270;2023-06-22T07:16:12;589.20;2432.00
16491;DHT22;8356;51.214;3.270;2023-06-22T07:18:39;589.30;2432.00
16491;DHT22;8356;51.214;3.270;2023-06-22T07:21:05;589.30;2432.00
16491;DHT22;8356;51.214;3.270;2023-06-22T07:23:32;589.40;2432.00
16491;DHT22;8356;51.214;3.270;2023-06-22T07:25:58;589.50;2432.00
16491;DHT22;8356;51.214;3.270;2023-06-22T07:28:27;589.60;2432.00
16491;DHT22;8356;51.214;3.270;2023-06-22T07:30:53;589.70;2432.00
16491;DHT22;8356;51.214;3.270;2023-06-22T07:33:18;614.50;2432.00
16491;DHT22;8356;51.214;3.270;2023-06-22T07:35:45;614.60;2432.00
16491;DHT22;8356;51.214;3.270;2023-06-22T07:38:10;614.60;2432.00
16491;DHT22;8356;51.214;3.270;2023-06-22T07:40:36;614.60;2432.00
16491;DHT22;8356;51.214;3.270;2023-06-22T07:43:02;614.70;2432.00
16491;DHT22;8356;51.214;3.270;2023-06-22T07:45:29;614.70;2432.00
16491;DHT22;8356;51.214;3.270;2023-06-22T07:47:55;614.90;2432.00
16491;DHT22;8356;51.214;3.270;2023-06-22T07:50:20;614.80;2432.00
16491;DHT22;8356;51.214;3.270;2023-06-22T07:52:46;614.80;2432.00
16491;DHT22;8356;51.214;3.270;2023-06-22T07:55:13;614.80;2432.00
16491;DHT22;8356;51.214;3.270;2023-06-22T07:57:39;614.90;2432.00
16491;DHT22;8356;51.214;3.270;2023-06-22T08:00:05;614.90;2432.00
16491;DHT22;8356;51.214;3.270;2023-06-22T08:02:40;614.90;2432.00
16491;DHT22;8356;51.214;3.270;2023-06-22T08:05:07;615.00;2432.00
16491;DHT22;8356;51.214;3.270;2023-06-22T08:07:37;615.00;2432.00
16491;DHT22;8356;51.214;3.270;2023-06-22T08:10:03;615.00;2432.00
16491;DHT22;8356;51.214;3.270;2023-06-22T08:12:29;615.00;2432.00
16491;DHT22;8356;51.214;3.270;2023-06-22T08:14:55;615.10;2432.00
16491;DHT22;8356;51.214;3.270;2023-06-22T08:17:23;615.10;2432.00
16491;DHT22;8356;51.214;3.270;2023-06-22T08:19:48;615.00;2432.00
16491;DHT22;8356;51.214;3.270;2023-06-22T08:22:15;615.10;2432.00
16491;DHT22;8356;51.214;3.270;2023-06-22T08:24:41;615.10;2432.00
16491;DHT22;8356;51.214;3.270;2023-06-22T08:27:10;615.10;2432.00
16491;DHT22;8356;51.214;3.270;2023-06-22T08:29:40;615.10;2432.00
16491;DHT22;8356;51.214;3.270;2023-06-22T08:32:09;615.10;2432.00
16491;DHT22;8356;51.214;3.270;2023-06-22T08:34:34;615.10;2432.00
16491;DHT22;8356;51.214;3.270;2023-06-22T08:37:00;615.20;2432.00
16491;DHT22;8356;51.214;3.270;2023-06-22T08:39:26;615.20;2432.00
16491;DHT22;8356;51.214;3.270;2023-06-22T08:41:53;615.20;2432.00
16491;DHT22;8356;51.214;3.270;2023-06-22T08:44:19;615.30;2432.00
16491;DHT22;8356;51.214;3.270;2023-06-22T08:46:45;615.30;2432.00
16491;DHT22;8356;51.214;3.270;2023-06-22T08:49:11;615.30;2432.00
16491;DHT22;8356;51.214;3.270;2023-06-22T08:51:36;615.30;2432.00
16491;DHT22;8356;51.214;3.270;2023-06-22T08:54:02;615.30;2432.00
16491;DHT22;8356;51.214;3.270;2023-06-22T08:56:28;615.30;2432.00
16491;DHT22;8356;51.214;3.270;2023-06-22T08:58:53;615.30;2432.00
16491;DHT22;8356;51.214;3.270;2023-06-22T09:01:19;615.30;2432.00
16491;DHT22;8356;51.214;3.270;2023-06-22T09:03:44;640.00;2432.00
16491;DHT22;8356;51.214;3.270;2023-06-22T09:06:19;640.00;2432.00
16491;DHT22;8356;51.214;3.270;2023-06-22T09:08:45;640.10;2432.00
16491;DHT22;8356;51.214;3.270;2023-06-22T09:11:12;640.00;2432.00
16491;DHT22;8356;51.214;3.270;2023-06-22T09:13:38;640.00;2432.00
16491;DHT22;8356;51.214;3.270;2023-06-22T09:16:04;640.00;2432.00
16491;DHT22;8356;51.214;3.270;2023-06-22T09:18:29;615.30;2432.00
16491;DHT22;8356;51.214;3.270;2023-06-22T09:20:55;615.30;2432.00
16491;DHT22;8356;51.214;3.270;2023-06-22T09:23:21;615.30;2432.00
16491;DHT22;8356;51.214;3.270;2023-06-22T09:25:47;640.00;2432.00
16491;DHT22;8356;51.214;3.270;2023-06-22T09:28:14;640.00;2432.00
16491;DHT22;8356;51.214;3.270;2023-06-22T09:30:39;615.30;2432.00
16491;DHT22;8356;51.214;3.270;2023-06-22T09:33:05;615.30;2432.00
16491;DHT22;8356;51.214;3.270;2023-06-22T09:35:31;615.20;2432.00
16491;DHT22;8356;51.214;3.270;2023-06-22T09:37:56;615.30;2432.00
16491;DHT22;8356;51.214;3.270;2023-06-22T09:40:22;615.30;2432.00
16491;DHT22;8356;51.214;3.270;2023-06-22T09:42:48;615.20;2432.00
16491;DHT22;8356;51.214;3.270;2023-06-22T09:45:13;615.20;2432.00
16491;DHT22;8356;51.214;3.270;2023-06-22T09:47:39;615.20;2432.00
16491;DHT22;8356;51.214;3.270;2023-06-22T09:50:05;615.30;2432.00
16491;DHT22;8356;51.214;3.270;2023-06-22T09:52:31;640.00;2432.00
16491;DHT22;8356;51.214;3.270;2023-06-22T09:54:57;640.00;2432.00
16491;DHT22;8356;51.214;3.270;2023-06-22T09:57:23;640.10;2432.00
16491;DHT22;8356;51.214;3.270;2023-06-22T09:59:48;640.00;2432.00
16491;DHT22;8356;51.214;3.270;2023-06-22T10:02:14;640.00;2432.00
16491;DHT22;8356;51.214;3.270;2023-06-22T10:04:39;640.00;2432.00
16491;DHT22;8356;51.214;3.270;2023-06-22T10:07:05;640.10;2432.00
16491;DHT22;8356;51.214;3.270;2023-06-22T10:09:31;640.10;2432.00
16491;DHT22;8356;51.214;3.270;2023-06-22T10:11:57;640.20;2432.00
16491;DHT22;8356;51.214;3.270;2023-06-22T10:14:22;640.20;2432.00
16491;DHT22;8356;51.214;3.270;2023-06-22T10:16:52;640.30;2432.00
16491;DHT22;8356;51.214;3.270;2023-06-22T10:19:17;640.20;2432.00
16491;DHT22;8356;51.214;3.270;2023-06-22T10:21:43;640.30;2432.00
16491;DHT22;8356;51.214;3.270;2023-06-22T10:24:09;640.20;2432.00
16491;DHT22;8356;51.214;3.270;2023-06-22T10:26:35;640.20;2432.00
16491;DHT22;8356;51.214;3.270;2023-06-22T10:29:02;640.10;2432.00
16491;DHT22;8356;51.214;3.270;2023-06-22T10:31:28;640.10;2432.00
16491;DHT22;8356;51.214;3.270;2023-06-22T10:33:54;640.10;2432.00
16491;DHT22;8356;51.214;3.270;2023-06-22T10:36:21;640.20;2432.00
16491;DHT22;8356;51.214;3.270;2023-06-22T10:38:47;640.30;2432.00
16491;DHT22;8356;51.214;3.270;2023-06-22T10:41:14;640.20;2432.00
16491;DHT22;8356;51.214;3.270;2023-06-22T10:43:39;640.10;2432.00
16491;DHT22;8356;51.214;3.270;2023-06-22T10:46:06;640.00;2432.00
16491;DHT22;8356;51.214;3.270;2023-06-22T10:48:32;640.10;2432.00
16491;DHT22;8356;51.214;3.270;2023-06-22T10:50:58;640.00;2432.00
16491;DHT22;8356;51.214;3.270;2023-06-22T10:53:24;640.00;2432.00
16491;DHT22;8356;51.214;3.270;2023-06-22T10:55:49;615.30;2432.00
16491;DHT22;8356;51.214;3.270;2023-06-22T10:58:17;640.00;2432.00
16491;DHT22;8356;51.214;3.270;2023-06-22T11:00:43;640.00;2432.00
16491;DHT22;8356;51.214;3.270;2023-06-22T11:03:09;615.30;2432.00
16491;DHT22;8356;51.214;3.270;2023-06-22T11:05:34;615.30;2432.00
16491;DHT22;8356;51.214;3.270;2023-06-22T11:08:00;615.30;2432.00
16491;DHT22;8356;51.214;3.270;2023-06-22T11:10:25;615.30;2432.00
16491;DHT22;8356;51.214;3.270;2023-06-22T11:12:52;615.20;2432.00
16491;DHT22;8356;51.214;3.270;2023-06-22T11:15:18;615.20;2432.00
16491;DHT22;8356;51.214;3.270;2023-06-22T11:17:44;615.30;2432.00
16491;DHT22;8356;51.214;3.270;2023-06-22T11:20:10;640.00;2432.00
16491;DHT22;8356;51.214;3.270;2023-06-22T11:22:40;615.20;2432.00
16491;DHT22;8356;51.214;3.270;2023-06-22T11:25:06;615.20;2432.00
16491;DHT22;8356;51.214;3.270;2023-06-22T11:27:32;615.00;2432.00
16491;DHT22;8356;51.214;3.270;2023-06-22T11:29:58;614.80;2432.00
16491;DHT22;8356;51.214;3.270;2023-06-22T11:32:24;614.80;2432.00
16491;DHT22;8356;51.214;3.270;2023-06-22T11:34:49;614.70;2432.00
16491;DHT22;8356;51.214;3.270;2023-06-22T11:37:15;614.70;2432.00
16491;DHT22;8356;51.214;3.270;2023-06-22T11:39:42;614.70;2432.00
16491;DHT22;8356;51.214;3.270;2023-06-22T11:42:08;614.70;2432.00
16491;DHT22;8356;51.214;3.270;2023-06-22T11:44:34;614.70;2432.00
16491;DHT22;8356;51.214;3.270;2023-06-22T11:47:00;614.70;2432.00
16491;DHT22;8356;51.214;3.270;2023-06-22T11:49:26;614.70;2432.00
16491;DHT22;8356;51.214;3.270;2023-06-22T11:51:53;614.70;2432.00
16491;DHT22;8356;51.214;3.270;2023-06-22T11:54:18;614.60;2432.00
16491;DHT22;8356;51.214;3.270;2023-06-22T11:56:44;614.60;2432.00
16491;DHT22;8356;51.214;3.270;2023-06-22T11:59:10;614.50;2432.00
16491;DHT22;8356;51.214;3.270;2023-06-22T12:01:35;614.50;2432.00
16491;DHT22;8356;51.214;3.270;2023-06-22T12:04:01;614.60;2432.00
16491;DHT22;8356;51.214;3.270;2023-06-22T12:06:27;614.50;2432.00
16491;DHT22;8356;51.214;3.270;2023-06-22T12:08:52;614.50;2432.00
16491;DHT22;8356;51.214;3.270;2023-06-22T12:11:18;614.60;2432.00
16491;DHT22;8356;51.214;3.270;2023-06-22T12:13:44;614.60;2432.00
16491;DHT22;8356;51.214;3.270;2023-06-22T12:16:09;614.50;2432.00
16491;DHT22;8356;51.214;3.270;2023-06-22T12:18:35;614.50;2432.00
16491;DHT22;8356;51.214;3.270;2023-06-22T12:21:01;614.40;2432.00
16491;DHT22;8356;51.214;3.270;2023-06-22T12:23:26;614.40;2432.00
16491;DHT22;8356;51.214;3.270;2023-06-22T12:25:52;614.40;2432.00
16491;DHT22;8356;51.214;3.270;2023-06-22T12:28:18;614.40;2432.00
16491;DHT22;8356;51.214;3.270;2023-06-22T12:30:44;614.40;2432.00
16491;DHT22;8356;51.214;3.270;2023-06-22T12:33:09;614.40;2432.00
16491;DHT22;8356;51.214;3.270;2023-06-22T12:35:35;614.40;2432.00
16491;DHT22;8356;51.214;3.270;2023-06-22T12:38:01;589.70;2432.00
16491;DHT22;8356;51.214;3.270;2023-06-22T12:40:26;589.70;2432.00
16491;DHT22;8356;51.214;3.270;2023-06-22T12:42:52;589.70;2432.00
16491;DHT22;8356;51.214;3.270;2023-06-22T12:45:18;589.70;2432.00
16491;DHT22;8356;51.214;3.270;2023-06-22T12:47:44;614.40;2432.00
16491;DHT22;8356;51.214;3.270;2023-06-22T12:50:09;614.40;2432.00
16491;DHT22;8356;51.214;3.270;2023-06-22T12:52:36;614.40;2432.00
16491;DHT22;8356;51.214;3.270;2023-06-22T12:55:05;589.70;2432.00
16491;DHT22;8356;51.214;3.270;2023-06-22T12:57:31;589.60;2432.00
16491;DHT22;8356;51.214;3.270;2023-06-22T12:59:56;589.60;2432.00
16491;DHT22;8356;51.214;3.270;2023-06-22T13:02:23;589.50;2432.00
16491;DHT22;8356;51.214;3.270;2023-06-22T13:04:49;589.60;2432.00
16491;DHT22;8356;51.214;3.270;2023-06-22T13:07:15;589.70;2432.00
16491;DHT22;8356;51.214;3.270;2023-06-22T13:09:40;589.60;2432.00
16491;DHT22;8356;51.214;3.270;2023-06-22T13:12:06;589.60;2432.00
16491;DHT22;8356;51.214;3.270;2023-06-22T13:14:32;589.50;2432.00
16491;DHT22;8356;51.214;3.270;2023-06-22T13:16:58;589.60;2432.00
16491;DHT22;8356;51.214;3.270;2023-06-22T13:19:23;589.40;2432.00
16491;DHT22;8356;51.214;3.270;2023-06-22T13:21:49;589.40;2432.00
16491;DHT22;8356;51.214;3.270;2023-06-22T13:24:15;589.40;2432.00
16491;DHT22;8356;51.214;3.270;2023-06-22T13:26:41;589.60;2432.00
16491;DHT22;8356;51.214;3.270;2023-06-22T13:29:07;589.50;2432.00
16491;DHT22;8356;51.214;3.270;2023-06-22T13:31:33;589.50;2432.00
16491;DHT22;8356;51.214;3.270;2023-06-22T13:33:58;589.50;2432.00
16491;DHT22;8356;51.214;3.270;2023-06-22T13:36:24;589.40;2432.00
16491;DHT22;8356;51.214;3.270;2023-06-22T13:38:50;589.40;2432.00
16491;DHT22;8356;51.214;3.270;2023-06-22T13:41:16;589.50;2432.00
16491;DHT22;8356;51.214;3.270;2023-06-22T13:43:41;589.50;2432.00
16491;DHT22;8356;51.214;3.270;2023-06-22T13:46:07;589.60;2432.00
16491;DHT22;8356;51.214;3.270;2023-06-22T13:48:32;589.60;2432.00
16491;DHT22;8356;51.214;3.270;2023-06-22T13:50:58;589.60;2432.00
16491;DHT22;8356;51.214;3.270;2023-06-22T13:53:24;589.40;2432.00
16491;DHT22;8356;51.214;3.270;2023-06-22T13:55:51;589.50;2432.00
16491;DHT22;8356;51.214;3.270;2023-06-22T13:58:16;589.50;2432.00
16491;DHT22;8356;51.214;3.270;2023-06-22T14:00:42;589.40;2432.00
16491;DHT22;8356;51.214;3.270;2023-06-22T14:03:08;589.40;2432.00
16491;DHT22;8356;51.214;3.270;2023-06-22T14:05:33;589.60;2432.00
16491;DHT22;8356;51.214;3.270;2023-06-22T14:07:59;614.40;2432.00
16491;DHT22;8356;51.214;3.270;2023-06-22T14:10:24;589.70;2432.00
16491;DHT22;8356;51.214;3.270;2023-06-22T14:12:50;589.70;2432.00
16491;DHT22;8356;51.214;3.270;2023-06-22T14:15:16;589.50;2432.00
16491;DHT22;8356;51.214;3.270;2023-06-22T14:17:41;589.30;2432.00
16491;DHT22;8356;51.214;3.270;2023-06-22T14:20:07;589.40;2432.00
16491;DHT22;8356;51.214;3.270;2023-06-22T14:22:33;589.50;2432.00
16491;DHT22;8356;51.214;3.270;2023-06-22T14:25:00;589.50;2432.00
16491;DHT22;8356;51.214;3.270;2023-06-22T14:27:27;589.50;2432.00
16491;DHT22;8356;51.214;3.270;2023-06-22T14:29:52;589.50;2432.00
16491;DHT22;8356;51.214;3.270;2023-06-22T14:32:18;589.50;2432.00
16491;DHT22;8356;51.214;3.270;2023-06-22T14:34:44;589.30;2432.00
16491;DHT22;8356;51.214;3.270;2023-06-22T14:37:10;589.50;2432.00
16491;DHT22;8356;51.214;3.270;2023-06-22T14:39:36;589.50;2432.00
16491;DHT22;8356;51.214;3.270;2023-06-22T14:42:02;589.60;2432.00
16491;DHT22;8356;51.214;3.270;2023-06-22T14:44:29;589.60;2432.00
16491;DHT22;8356;51.214;3.270;2023-06-22T14:46:55;589.70;2432.00
16491;DHT22;8356;51.214;3.270;2023-06-22T14:49:21;589.70;2432.00
16491;DHT22;8356;51.214;3.270;2023-06-22T14:51:46;589.70;2432.00
16491;DHT22;8356;51.214;3.270;2023-06-22T14:54:12;589.60;2432.00
16491;DHT22;8356;51.214;3.270;2023-06-22T14:56:38;589.50;2432.00
16491;DHT22;8356;51.214;3.270;2023-06-22T14:59:03;589.50;2432.00
16491;DHT22;8356;51.214;3.270;2023-06-22T15:01:29;589.40;2432.00
16491;DHT22;8356;51.214;3.270;2023-06-22T15:03:55;589.30;2432.00
16491;DHT22;8356;51.214;3.270;2023-06-22T15:06:21;589.20;2432.00
16491;DHT22;8356;51.214;3.270;2023-06-22T15:08:47;589.10;2432.00